sensor_id;sensor_type;location;lat;lon;timestamp;P1;durP1;ratioP1;P2;durP2;ratioP2
72728;SDS011;60843;52.062;4.508;2023-05-10T00:01:25;52.33;;;17.77;;
72728;SDS011;60843;52.062;4.508;2023-05-10T00:03:51;51.08;;;19.98;;
72728;SDS011;60843;52.062;4.508;2023-05-10T00:06:16;54.63;;;19.17;;
72728;SDS011;60843;52.062;4.508;2023-05-10T00:08:41;47.30;;;18.40;;
72728;SDS011;60843;52.062;4.508;2023-05-10T00:11:07;43.97;;;17.73;;
72728;SDS011;60843;52.062;4.508;2023-05-10T00:13:32;49.53;;;19.03;;
72728;SDS011;60843;52.062;4.508;2023-05-10T00:16:05;48.42;;;18.60;;
72728;SDS011;60843;52.062;4.508;2023-05-10T00:18:30;47.55;;;17.23;;
72728;SDS011;60843;52.062;4.508;2023-05-10T00:20:56;40.27;;;17.40;;
72728;SDS011;60843;52.062;4.508;2023-05-10T00:23:21;46.97;;;18.45;;
72728;SDS011;60843;52.062;4.508;2023-05-10T00:25:48;39.87;;;17.83;;
72728;SDS011;60843;52.062;4.508;2023-05-10T00:28:14;42.60;;;17.00;;
72728;SDS011;60843;52.062;4.508;2023-05-10T00:30:39;50.40;;;17.02;;
72728;SDS011;60843;52.062;4.508;2023-05-10T00:33:05;49.47;;;18.73;;
72728;SDS011;60843;52.062;4.508;2023-05-10T00:35:30;52.35;;;18.95;;
72728;SDS011;60843;52.062;4.508;2023-05-10T00:37:56;46.65;;;17.83;;
72728;SDS011;60843;52.062;4.508;2023-05-10T00:40:22;56.05;;;20.63;;
72728;SDS011;60843;52.062;4.508;2023-05-10T00:42:47;50.08;;;18.92;;
72728;SDS011;60843;52.062;4.508;2023-05-10T00:45:19;59.75;;;19.65;;
72728;SDS011;60843;52.062;4.508;2023-05-10T00:47:44;59.15;;;19.95;;
72728;SDS011;60843;52.062;4.508;2023-05-10T00:50:10;59.72;;;20.63;;
72728;SDS011;60843;52.062;4.508;2023-05-10T00:52:35;69.00;;;23.77;;
72728;SDS011;60843;52.062;4.508;2023-05-10T00:55:01;78.65;;;25.30;;
72728;SDS011;60843;52.062;4.508;2023-05-10T00:57:27;77.57;;;24.73;;
72728;SDS011;60843;52.062;4.508;2023-05-10T00:59:52;89.40;;;25.77;;
72728;SDS011;60843;52.062;4.508;2023-05-10T01:02:18;93.18;;;27.77;;
72728;SDS011;60843;52.062;4.508;2023-05-10T01:04:43;98.83;;;28.23;;
72728;SDS011;60843;52.062;4.508;2023-05-10T01:07:09;110.77;;;28.57;;
72728;SDS011;60843;52.062;4.508;2023-05-10T01:09:35;128.13;;;27.90;;
72728;SDS011;60843;52.062;4.508;2023-05-10T01:12:01;159.38;;;26.83;;
72728;SDS011;60843;52.062;4.508;2023-05-10T01:14:28;245.55;;;23.98;;
72728;SDS011;60843;52.062;4.508;2023-05-10T01:16:53;221.63;;;23.53;;
72728;SDS011;60843;52.062;4.508;2023-05-10T01:19:22;179.25;;;23.90;;
72728;SDS011;60843;52.062;4.508;2023-05-10T01:32:21;109.93;;;20.10;;
72728;SDS011;60843;52.062;4.508;2023-05-10T01:40:32;97.68;;;21.08;;
72728;SDS011;60843;52.062;4.508;2023-05-10T01:43:02;116.55;;;22.40;;
72728;SDS011;60843;52.062;4.508;2023-05-10T01:45:43;114.97;;;20.85;;
72728;SDS011;60843;52.062;4.508;2023-05-10T01:48:14;102.60;;;21.85;;
72728;SDS011;60843;52.062;4.508;2023-05-10T01:50:41;100.03;;;20.55;;
72728;SDS011;60843;52.062;4.508;2023-05-10T01:53:09;85.85;;;19.95;;
72728;SDS011;60843;52.062;4.508;2023-05-10T01:55:36;74.25;;;19.45;;
72728;SDS011;60843;52.062;4.508;2023-05-10T01:58:10;100.53;;;21.50;;
72728;SDS011;60843;52.062;4.508;2023-05-10T02:00:52;85.78;;;19.63;;
72728;SDS011;60843;52.062;4.508;2023-05-10T02:03:20;75.60;;;19.33;;
72728;SDS011;60843;52.062;4.508;2023-05-10T02:05:48;82.53;;;20.33;;
72728;SDS011;60843;52.062;4.508;2023-05-10T02:08:13;86.40;;;20.67;;
72728;SDS011;60843;52.062;4.508;2023-05-10T02:10:39;76.43;;;21.17;;
72728;SDS011;60843;52.062;4.508;2023-05-10T02:13:06;84.63;;;20.48;;
72728;SDS011;60843;52.062;4.508;2023-05-10T02:15:32;77.85;;;20.67;;
72728;SDS011;60843;52.062;4.508;2023-05-10T02:18:00;71.63;;;21.17;;
72728;SDS011;60843;52.062;4.508;2023-05-10T02:20:25;81.13;;;22.90;;
72728;SDS011;60843;52.062;4.508;2023-05-10T02:22:51;78.97;;;21.15;;
72728;SDS011;60843;52.062;4.508;2023-05-10T02:25:19;86.18;;;22.80;;
72728;SDS011;60843;52.062;4.508;2023-05-10T02:27:45;78.10;;;20.58;;
72728;SDS011;60843;52.062;4.508;2023-05-10T02:32:57;65.70;;;19.35;;
72728;SDS011;60843;52.062;4.508;2023-05-10T02:35:23;73.57;;;21.33;;
72728;SDS011;60843;52.062;4.508;2023-05-10T02:37:50;74.22;;;22.63;;
72728;SDS011;60843;52.062;4.508;2023-05-10T02:40:16;77.55;;;23.27;;
72728;SDS011;60843;52.062;4.508;2023-05-10T02:42:42;66.10;;;20.83;;
72728;SDS011;60843;52.062;4.508;2023-05-10T02:45:13;56.67;;;19.48;;
72728;SDS011;60843;52.062;4.508;2023-05-10T02:47:42;70.30;;;22.17;;
72728;SDS011;60843;52.062;4.508;2023-05-10T02:50:08;60.40;;;20.92;;
72728;SDS011;60843;52.062;4.508;2023-05-10T02:52:56;68.88;;;20.52;;
72728;SDS011;60843;52.062;4.508;2023-05-10T02:55:22;62.75;;;22.20;;
72728;SDS011;60843;52.062;4.508;2023-05-10T02:57:51;54.03;;;19.85;;
72728;SDS011;60843;52.062;4.508;2023-05-10T03:00:19;52.38;;;19.30;;
72728;SDS011;60843;52.062;4.508;2023-05-10T03:02:44;61.33;;;23.38;;
72728;SDS011;60843;52.062;4.508;2023-05-10T03:05:12;55.27;;;21.80;;
72728;SDS011;60843;52.062;4.508;2023-05-10T03:07:37;57.53;;;22.88;;
72728;SDS011;60843;52.062;4.508;2023-05-10T03:10:03;56.42;;;21.10;;
72728;SDS011;60843;52.062;4.508;2023-05-10T03:20:31;53.50;;;23.30;;
72728;SDS011;60843;52.062;4.508;2023-05-10T03:25:39;56.42;;;23.08;;
72728;SDS011;60843;52.062;4.508;2023-05-10T03:28:05;61.15;;;24.35;;
72728;SDS011;60843;52.062;4.508;2023-05-10T03:30:31;60.88;;;23.13;;
72728;SDS011;60843;52.062;4.508;2023-05-10T03:32:57;54.33;;;22.70;;
72728;SDS011;60843;52.062;4.508;2023-05-10T03:35:22;60.72;;;24.02;;
72728;SDS011;60843;52.062;4.508;2023-05-10T03:37:48;53.13;;;22.25;;
72728;SDS011;60843;52.062;4.508;2023-05-10T03:40:14;60.70;;;24.43;;
72728;SDS011;60843;52.062;4.508;2023-05-10T03:42:39;52.38;;;23.48;;
72728;SDS011;60843;52.062;4.508;2023-05-10T03:45:05;51.50;;;21.10;;
72728;SDS011;60843;52.062;4.508;2023-05-10T03:47:31;46.53;;;21.13;;
72728;SDS011;60843;52.062;4.508;2023-05-10T03:49:57;49.78;;;20.48;;
72728;SDS011;60843;52.062;4.508;2023-05-10T03:52:22;42.42;;;19.15;;
72728;SDS011;60843;52.062;4.508;2023-05-10T03:54:48;46.47;;;21.17;;
72728;SDS011;60843;52.062;4.508;2023-05-10T03:57:13;45.20;;;19.60;;
72728;SDS011;60843;52.062;4.508;2023-05-10T03:59:38;49.53;;;23.30;;
72728;SDS011;60843;52.062;4.508;2023-05-10T04:02:04;51.73;;;24.37;;
72728;SDS011;60843;52.062;4.508;2023-05-10T04:04:29;50.57;;;21.50;;
72728;SDS011;60843;52.062;4.508;2023-05-10T04:06:54;47.97;;;21.63;;
72728;SDS011;60843;52.062;4.508;2023-05-10T04:09:21;54.13;;;23.45;;
72728;SDS011;60843;52.062;4.508;2023-05-10T04:11:48;59.63;;;28.85;;
72728;SDS011;60843;52.062;4.508;2023-05-10T04:14:14;64.15;;;32.28;;
72728;SDS011;60843;52.062;4.508;2023-05-10T04:16:40;59.30;;;27.87;;
72728;SDS011;60843;52.062;4.508;2023-05-10T04:19:05;56.72;;;29.75;;
72728;SDS011;60843;52.062;4.508;2023-05-10T04:21:31;60.70;;;27.63;;
72728;SDS011;60843;52.062;4.508;2023-05-10T04:23:56;54.03;;;25.33;;
72728;SDS011;60843;52.062;4.508;2023-05-10T04:26:22;59.47;;;27.00;;
72728;SDS011;60843;52.062;4.508;2023-05-10T04:28:48;51.38;;;26.92;;
72728;SDS011;60843;52.062;4.508;2023-05-10T04:31:13;51.57;;;22.77;;
72728;SDS011;60843;52.062;4.508;2023-05-10T04:33:40;39.55;;;17.80;;
72728;SDS011;60843;52.062;4.508;2023-05-10T04:36:05;41.83;;;17.00;;
72728;SDS011;60843;52.062;4.508;2023-05-10T04:38:31;36.55;;;15.68;;
72728;SDS011;60843;52.062;4.508;2023-05-10T04:41:10;45.90;;;17.98;;
72728;SDS011;60843;52.062;4.508;2023-05-10T04:43:36;64.03;;;20.95;;
72728;SDS011;60843;52.062;4.508;2023-05-10T04:46:02;45.72;;;14.20;;
72728;SDS011;60843;52.062;4.508;2023-05-10T04:48:28;57.83;;;17.17;;
72728;SDS011;60843;52.062;4.508;2023-05-10T04:50:55;50.78;;;16.33;;
72728;SDS011;60843;52.062;4.508;2023-05-10T04:53:21;53.88;;;17.25;;
72728;SDS011;60843;52.062;4.508;2023-05-10T04:55:46;52.40;;;17.75;;
72728;SDS011;60843;52.062;4.508;2023-05-10T04:58:13;49.10;;;16.00;;
72728;SDS011;60843;52.062;4.508;2023-05-10T05:00:39;46.70;;;18.45;;
72728;SDS011;60843;52.062;4.508;2023-05-10T05:03:04;46.20;;;17.50;;
72728;SDS011;60843;52.062;4.508;2023-05-10T05:05:30;49.17;;;18.63;;
72728;SDS011;60843;52.062;4.508;2023-05-10T05:07:55;46.78;;;17.60;;
72728;SDS011;60843;52.062;4.508;2023-05-10T05:10:21;51.10;;;17.77;;
72728;SDS011;60843;52.062;4.508;2023-05-10T05:12:46;47.97;;;18.07;;
72728;SDS011;60843;52.062;4.508;2023-05-10T05:15:11;41.93;;;15.33;;
72728;SDS011;60843;52.062;4.508;2023-05-10T05:17:37;38.22;;;14.32;;
72728;SDS011;60843;52.062;4.508;2023-05-10T05:20:02;37.30;;;14.13;;
72728;SDS011;60843;52.062;4.508;2023-05-10T05:22:28;33.72;;;13.18;;
72728;SDS011;60843;52.062;4.508;2023-05-10T05:24:54;31.07;;;11.90;;
72728;SDS011;60843;52.062;4.508;2023-05-10T05:27:19;33.67;;;12.50;;
72728;SDS011;60843;52.062;4.508;2023-05-10T05:29:52;32.85;;;12.25;;
72728;SDS011;60843;52.062;4.508;2023-05-10T05:32:18;38.22;;;13.95;;
72728;SDS011;60843;52.062;4.508;2023-05-10T05:34:44;28.02;;;11.25;;
72728;SDS011;60843;52.062;4.508;2023-05-10T05:37:13;33.50;;;11.88;;
72728;SDS011;60843;52.062;4.508;2023-05-10T05:39:39;30.70;;;11.55;;
72728;SDS011;60843;52.062;4.508;2023-05-10T05:42:05;27.03;;;11.00;;
72728;SDS011;60843;52.062;4.508;2023-05-10T05:44:30;23.67;;;10.37;;
72728;SDS011;60843;52.062;4.508;2023-05-10T05:46:55;22.83;;;10.15;;
72728;SDS011;60843;52.062;4.508;2023-05-10T05:49:21;28.33;;;10.97;;
72728;SDS011;60843;52.062;4.508;2023-05-10T05:51:46;24.92;;;9.80;;
72728;SDS011;60843;52.062;4.508;2023-05-10T05:54:14;22.30;;;9.68;;
72728;SDS011;60843;52.062;4.508;2023-05-10T05:56:41;27.10;;;10.30;;
72728;SDS011;60843;52.062;4.508;2023-05-10T05:59:06;23.30;;;9.40;;
72728;SDS011;60843;52.062;4.508;2023-05-10T06:01:32;24.43;;;9.43;;
72728;SDS011;60843;52.062;4.508;2023-05-10T06:03:57;19.88;;;8.57;;
72728;SDS011;60843;52.062;4.508;2023-05-10T06:06:22;21.60;;;9.33;;
72728;SDS011;60843;52.062;4.508;2023-05-10T06:08:48;21.27;;;9.33;;
72728;SDS011;60843;52.062;4.508;2023-05-10T06:11:13;22.20;;;9.13;;
72728;SDS011;60843;52.062;4.508;2023-05-10T06:13:38;21.43;;;8.37;;
72728;SDS011;60843;52.062;4.508;2023-05-10T06:16:04;17.20;;;7.55;;
72728;SDS011;60843;52.062;4.508;2023-05-10T06:18:29;19.05;;;7.90;;
72728;SDS011;60843;52.062;4.508;2023-05-10T06:20:55;13.80;;;7.43;;
72728;SDS011;60843;52.062;4.508;2023-05-10T06:23:20;13.68;;;7.85;;
72728;SDS011;60843;52.062;4.508;2023-05-10T06:25:45;16.30;;;7.47;;
72728;SDS011;60843;52.062;4.508;2023-05-10T06:28:11;12.60;;;6.75;;
72728;SDS011;60843;52.062;4.508;2023-05-10T06:30:36;10.05;;;6.15;;
72728;SDS011;60843;52.062;4.508;2023-05-10T06:33:02;11.07;;;5.90;;
72728;SDS011;60843;52.062;4.508;2023-05-10T06:35:27;8.43;;;5.00;;
72728;SDS011;60843;52.062;4.508;2023-05-10T06:37:53;8.25;;;4.68;;
72728;SDS011;60843;52.062;4.508;2023-05-10T06:40:18;7.40;;;4.80;;
72728;SDS011;60843;52.062;4.508;2023-05-10T06:42:44;12.90;;;6.00;;
72728;SDS011;60843;52.062;4.508;2023-05-10T06:45:13;8.02;;;5.25;;
72728;SDS011;60843;52.062;4.508;2023-05-10T06:47:39;7.22;;;4.30;;
72728;SDS011;60843;52.062;4.508;2023-05-10T06:50:05;12.10;;;5.65;;
72728;SDS011;60843;52.062;4.508;2023-05-10T06:52:31;8.75;;;5.35;;
72728;SDS011;60843;52.062;4.508;2023-05-10T06:54:57;10.43;;;5.73;;
72728;SDS011;60843;52.062;4.508;2023-05-10T06:57:22;10.60;;;5.20;;
72728;SDS011;60843;52.062;4.508;2023-05-10T06:59:47;7.93;;;5.17;;
72728;SDS011;60843;52.062;4.508;2023-05-10T07:02:13;9.70;;;5.03;;
72728;SDS011;60843;52.062;4.508;2023-05-10T07:04:41;13.35;;;6.40;;
72728;SDS011;60843;52.062;4.508;2023-05-10T07:07:07;15.60;;;7.35;;
72728;SDS011;60843;52.062;4.508;2023-05-10T07:09:33;9.00;;;5.63;;
72728;SDS011;60843;52.062;4.508;2023-05-10T07:11:58;11.98;;;5.72;;
72728;SDS011;60843;52.062;4.508;2023-05-10T07:14:24;9.77;;;5.10;;
72728;SDS011;60843;52.062;4.508;2023-05-10T07:16:49;10.53;;;5.17;;
72728;SDS011;60843;52.062;4.508;2023-05-10T07:19:14;9.27;;;4.90;;
72728;SDS011;60843;52.062;4.508;2023-05-10T07:21:40;8.50;;;4.93;;
72728;SDS011;60843;52.062;4.508;2023-05-10T07:24:07;13.00;;;5.68;;
72728;SDS011;60843;52.062;4.508;2023-05-10T07:29:17;10.18;;;5.38;;
72728;SDS011;60843;52.062;4.508;2023-05-10T07:31:42;10.38;;;5.05;;
72728;SDS011;60843;52.062;4.508;2023-05-10T07:34:11;10.87;;;5.80;;
72728;SDS011;60843;52.062;4.508;2023-05-10T07:36:36;11.35;;;5.28;;
72728;SDS011;60843;52.062;4.508;2023-05-10T07:39:02;12.23;;;5.07;;
72728;SDS011;60843;52.062;4.508;2023-05-10T07:41:28;14.52;;;6.25;;
72728;SDS011;60843;52.062;4.508;2023-05-10T07:43:53;12.07;;;5.55;;
72728;SDS011;60843;52.062;4.508;2023-05-10T07:46:18;9.00;;;4.95;;
72728;SDS011;60843;52.062;4.508;2023-05-10T07:51:16;10.75;;;5.32;;
72728;SDS011;60843;52.062;4.508;2023-05-10T07:53:41;8.60;;;4.50;;
72728;SDS011;60843;52.062;4.508;2023-05-10T07:56:26;8.93;;;4.80;;
72728;SDS011;60843;52.062;4.508;2023-05-10T07:58:54;10.43;;;5.10;;
72728;SDS011;60843;52.062;4.508;2023-05-10T08:01:20;10.07;;;4.75;;
72728;SDS011;60843;52.062;4.508;2023-05-10T08:03:46;10.75;;;5.35;;
72728;SDS011;60843;52.062;4.508;2023-05-10T08:06:11;12.10;;;5.07;;
72728;SDS011;60843;52.062;4.508;2023-05-10T08:08:37;10.68;;;5.18;;
72728;SDS011;60843;52.062;4.508;2023-05-10T08:11:03;9.52;;;5.25;;
72728;SDS011;60843;52.062;4.508;2023-05-10T08:13:28;8.65;;;5.18;;
72728;SDS011;60843;52.062;4.508;2023-05-10T08:15:54;9.67;;;5.03;;
72728;SDS011;60843;52.062;4.508;2023-05-10T08:18:19;9.63;;;5.00;;
72728;SDS011;60843;52.062;4.508;2023-05-10T08:20:44;10.70;;;5.10;;
72728;SDS011;60843;52.062;4.508;2023-05-10T08:23:11;8.27;;;4.85;;
72728;SDS011;60843;52.062;4.508;2023-05-10T08:25:39;7.40;;;4.45;;
72728;SDS011;60843;52.062;4.508;2023-05-10T08:28:04;7.10;;;4.13;;
72728;SDS011;60843;52.062;4.508;2023-05-10T08:30:30;10.77;;;4.13;;
72728;SDS011;60843;52.062;4.508;2023-05-10T08:32:55;7.00;;;4.20;;
72728;SDS011;60843;52.062;4.508;2023-05-10T08:35:20;7.67;;;4.43;;
72728;SDS011;60843;52.062;4.508;2023-05-10T08:37:46;7.93;;;4.53;;
72728;SDS011;60843;52.062;4.508;2023-05-10T08:40:11;7.65;;;3.88;;
72728;SDS011;60843;52.062;4.508;2023-05-10T08:42:38;7.72;;;4.18;;
72728;SDS011;60843;52.062;4.508;2023-05-10T08:45:06;8.52;;;3.67;;
72728;SDS011;60843;52.062;4.508;2023-05-10T08:47:32;6.60;;;3.40;;
72728;SDS011;60843;52.062;4.508;2023-05-10T08:49:58;11.02;;;4.05;;
72728;SDS011;60843;52.062;4.508;2023-05-10T08:52:25;12.27;;;3.83;;
72728;SDS011;60843;52.062;4.508;2023-05-10T08:54:54;7.68;;;3.97;;
72728;SDS011;60843;52.062;4.508;2023-05-10T08:57:20;9.00;;;3.90;;
72728;SDS011;60843;52.062;4.508;2023-05-10T08:59:45;8.40;;;5.07;;
72728;SDS011;60843;52.062;4.508;2023-05-10T09:02:11;7.47;;;4.32;;
72728;SDS011;60843;52.062;4.508;2023-05-10T09:04:38;5.97;;;3.40;;
72728;SDS011;60843;52.062;4.508;2023-05-10T09:07:04;5.70;;;3.22;;
72728;SDS011;60843;52.062;4.508;2023-05-10T09:09:31;10.13;;;3.63;;
72728;SDS011;60843;52.062;4.508;2023-05-10T09:11:56;6.00;;;3.20;;
72728;SDS011;60843;52.062;4.508;2023-05-10T09:14:23;8.23;;;3.95;;
72728;SDS011;60843;52.062;4.508;2023-05-10T09:16:48;6.43;;;2.92;;
72728;SDS011;60843;52.062;4.508;2023-05-10T09:19:14;7.00;;;4.30;;
72728;SDS011;60843;52.062;4.508;2023-05-10T09:21:39;8.73;;;4.63;;
72728;SDS011;60843;52.062;4.508;2023-05-10T09:24:11;6.93;;;4.03;;
72728;SDS011;60843;52.062;4.508;2023-05-10T09:26:45;10.27;;;5.45;;
72728;SDS011;60843;52.062;4.508;2023-05-10T09:29:12;9.02;;;4.95;;
72728;SDS011;60843;52.062;4.508;2023-05-10T09:31:45;11.73;;;5.85;;
72728;SDS011;60843;52.062;4.508;2023-05-10T09:34:16;12.07;;;5.55;;
72728;SDS011;60843;52.062;4.508;2023-05-10T09:36:56;13.45;;;5.93;;
72728;SDS011;60843;52.062;4.508;2023-05-10T09:39:43;10.95;;;6.00;;
72728;SDS011;60843;52.062;4.508;2023-05-10T09:42:09;13.23;;;6.07;;
72728;SDS011;60843;52.062;4.508;2023-05-10T09:44:35;11.68;;;4.68;;
72728;SDS011;60843;52.062;4.508;2023-05-10T09:47:00;10.43;;;5.20;;
72728;SDS011;60843;52.062;4.508;2023-05-10T09:49:26;9.95;;;5.30;;
72728;SDS011;60843;52.062;4.508;2023-05-10T09:52:05;10.98;;;4.90;;
72728;SDS011;60843;52.062;4.508;2023-05-10T09:54:31;8.90;;;4.28;;
72728;SDS011;60843;52.062;4.508;2023-05-10T09:56:57;11.65;;;4.53;;
72728;SDS011;60843;52.062;4.508;2023-05-10T09:59:24;7.90;;;4.07;;
72728;SDS011;60843;52.062;4.508;2023-05-10T10:01:51;8.50;;;4.88;;
72728;SDS011;60843;52.062;4.508;2023-05-10T10:04:17;10.38;;;4.45;;
72728;SDS011;60843;52.062;4.508;2023-05-10T10:06:42;9.75;;;4.07;;
72728;SDS011;60843;52.062;4.508;2023-05-10T10:09:08;10.17;;;5.17;;
72728;SDS011;60843;52.062;4.508;2023-05-10T10:11:34;14.55;;;5.38;;
72728;SDS011;60843;52.062;4.508;2023-05-10T10:14:18;18.27;;;6.57;;
72728;SDS011;60843;52.062;4.508;2023-05-10T10:16:43;16.83;;;6.47;;
72728;SDS011;60843;52.062;4.508;2023-05-10T10:19:09;15.10;;;6.80;;
72728;SDS011;60843;52.062;4.508;2023-05-10T10:21:34;18.80;;;6.25;;
72728;SDS011;60843;52.062;4.508;2023-05-10T10:24:00;16.30;;;6.25;;
72728;SDS011;60843;52.062;4.508;2023-05-10T10:26:26;17.60;;;6.03;;
72728;SDS011;60843;52.062;4.508;2023-05-10T10:31:48;14.02;;;5.65;;
72728;SDS011;60843;52.062;4.508;2023-05-10T10:34:27;10.68;;;5.95;;
72728;SDS011;60843;52.062;4.508;2023-05-10T10:36:53;9.85;;;5.20;;
72728;SDS011;60843;52.062;4.508;2023-05-10T10:39:21;12.18;;;5.03;;
72728;SDS011;60843;52.062;4.508;2023-05-10T10:41:50;10.05;;;5.43;;
72728;SDS011;60843;52.062;4.508;2023-05-10T10:52:40;13.60;;;5.95;;
72728;SDS011;60843;52.062;4.508;2023-05-10T10:57:44;11.95;;;5.50;;
72728;SDS011;60843;52.062;4.508;2023-05-10T11:03:11;13.73;;;5.82;;
72728;SDS011;60843;52.062;4.508;2023-05-10T11:08:12;9.05;;;4.30;;
72728;SDS011;60843;52.062;4.508;2023-05-10T11:10:38;12.93;;;6.00;;
72728;SDS011;60843;52.062;4.508;2023-05-10T11:13:06;14.25;;;6.93;;
72728;SDS011;60843;52.062;4.508;2023-05-10T11:15:33;13.40;;;6.80;;
72728;SDS011;60843;52.062;4.508;2023-05-10T11:18:01;15.45;;;7.05;;
72728;SDS011;60843;52.062;4.508;2023-05-10T11:20:42;14.63;;;6.93;;
72728;SDS011;60843;52.062;4.508;2023-05-10T11:23:13;12.85;;;6.63;;
72728;SDS011;60843;52.062;4.508;2023-05-10T11:25:44;11.45;;;6.88;;
72728;SDS011;60843;52.062;4.508;2023-05-10T11:28:11;15.52;;;6.53;;
72728;SDS011;60843;52.062;4.508;2023-05-10T11:30:39;13.57;;;6.43;;
72728;SDS011;60843;52.062;4.508;2023-05-10T11:33:06;12.57;;;6.57;;
72728;SDS011;60843;52.062;4.508;2023-05-10T11:35:41;13.30;;;6.55;;
72728;SDS011;60843;52.062;4.508;2023-05-10T11:38:07;10.95;;;5.93;;
72728;SDS011;60843;52.062;4.508;2023-05-10T11:40:33;15.63;;;7.22;;
72728;SDS011;60843;52.062;4.508;2023-05-10T11:42:59;14.70;;;7.28;;
72728;SDS011;60843;52.062;4.508;2023-05-10T11:45:25;12.45;;;5.75;;
72728;SDS011;60843;52.062;4.508;2023-05-10T11:47:51;11.38;;;6.30;;
72728;SDS011;60843;52.062;4.508;2023-05-10T11:50:17;12.80;;;5.75;;
72728;SDS011;60843;52.062;4.508;2023-05-10T11:52:42;12.50;;;5.57;;
72728;SDS011;60843;52.062;4.508;2023-05-10T11:55:08;14.18;;;5.97;;
72728;SDS011;60843;52.062;4.508;2023-05-10T11:57:33;12.23;;;4.70;;
72728;SDS011;60843;52.062;4.508;2023-05-10T12:00:00;10.60;;;4.40;;
72728;SDS011;60843;52.062;4.508;2023-05-10T12:02:25;7.63;;;4.07;;
72728;SDS011;60843;52.062;4.508;2023-05-10T12:04:50;13.33;;;6.03;;
72728;SDS011;60843;52.062;4.508;2023-05-10T12:07:16;13.35;;;5.50;;
72728;SDS011;60843;52.062;4.508;2023-05-10T12:10:01;9.70;;;4.43;;
72728;SDS011;60843;52.062;4.508;2023-05-10T12:12:40;15.45;;;5.70;;
72728;SDS011;60843;52.062;4.508;2023-05-10T12:15:10;12.93;;;6.05;;
72728;SDS011;60843;52.062;4.508;2023-05-10T12:17:44;11.23;;;5.45;;
72728;SDS011;60843;52.062;4.508;2023-05-10T12:20:19;10.93;;;5.25;;
72728;SDS011;60843;52.062;4.508;2023-05-10T12:22:55;12.00;;;5.55;;
72728;SDS011;60843;52.062;4.508;2023-05-10T12:25:23;10.52;;;5.30;;
72728;SDS011;60843;52.062;4.508;2023-05-10T12:27:53;8.85;;;5.03;;
72728;SDS011;60843;52.062;4.508;2023-05-10T12:30:25;11.57;;;5.80;;
72728;SDS011;60843;52.062;4.508;2023-05-10T12:32:59;13.02;;;5.60;;
72728;SDS011;60843;52.062;4.508;2023-05-10T12:35:26;10.55;;;5.25;;
72728;SDS011;60843;52.062;4.508;2023-05-10T12:37:51;9.93;;;5.53;;
72728;SDS011;60843;52.062;4.508;2023-05-10T12:40:17;12.70;;;5.47;;
72728;SDS011;60843;52.062;4.508;2023-05-10T12:42:42;10.88;;;5.63;;
72728;SDS011;60843;52.062;4.508;2023-05-10T12:45:09;11.93;;;5.75;;
72728;SDS011;60843;52.062;4.508;2023-05-10T12:47:35;12.93;;;5.45;;
72728;SDS011;60843;52.062;4.508;2023-05-10T12:50:01;10.63;;;4.85;;
72728;SDS011;60843;52.062;4.508;2023-05-10T12:52:27;7.38;;;4.50;;
72728;SDS011;60843;52.062;4.508;2023-05-10T12:54:53;10.00;;;5.10;;
72728;SDS011;60843;52.062;4.508;2023-05-10T12:57:21;10.57;;;5.43;;
72728;SDS011;60843;52.062;4.508;2023-05-10T12:59:47;11.60;;;5.60;;
72728;SDS011;60843;52.062;4.508;2023-05-10T13:02:12;12.70;;;6.47;;
72728;SDS011;60843;52.062;4.508;2023-05-10T13:04:39;12.57;;;5.97;;
72728;SDS011;60843;52.062;4.508;2023-05-10T13:07:05;9.25;;;5.22;;
72728;SDS011;60843;52.062;4.508;2023-05-10T13:09:34;7.22;;;4.10;;
72728;SDS011;60843;52.062;4.508;2023-05-10T13:11:59;7.90;;;4.13;;
72728;SDS011;60843;52.062;4.508;2023-05-10T13:14:25;7.82;;;4.03;;
72728;SDS011;60843;52.062;4.508;2023-05-10T13:16:50;10.57;;;4.30;;
72728;SDS011;60843;52.062;4.508;2023-05-10T13:19:16;8.03;;;3.67;;
72728;SDS011;60843;52.062;4.508;2023-05-10T13:21:41;7.85;;;3.50;;
72728;SDS011;60843;52.062;4.508;2023-05-10T13:24:07;7.20;;;3.90;;
72728;SDS011;60843;52.062;4.508;2023-05-10T13:26:33;9.02;;;3.90;;
72728;SDS011;60843;52.062;4.508;2023-05-10T13:28:58;8.52;;;4.05;;
72728;SDS011;60843;52.062;4.508;2023-05-10T13:31:23;9.57;;;4.47;;
72728;SDS011;60843;52.062;4.508;2023-05-10T13:33:49;9.55;;;3.67;;
72728;SDS011;60843;52.062;4.508;2023-05-10T13:36:14;6.50;;;3.27;;
72728;SDS011;60843;52.062;4.508;2023-05-10T13:38:39;8.60;;;3.33;;
72728;SDS011;60843;52.062;4.508;2023-05-10T13:41:05;7.93;;;3.23;;
72728;SDS011;60843;52.062;4.508;2023-05-10T13:43:30;6.10;;;2.90;;
72728;SDS011;60843;52.062;4.508;2023-05-10T13:45:55;7.73;;;4.07;;
72728;SDS011;60843;52.062;4.508;2023-05-10T13:48:21;6.30;;;3.10;;
72728;SDS011;60843;52.062;4.508;2023-05-10T13:50:46;4.90;;;3.13;;
72728;SDS011;60843;52.062;4.508;2023-05-10T13:53:12;4.05;;;2.70;;
72728;SDS011;60843;52.062;4.508;2023-05-10T13:55:37;5.45;;;2.55;;
72728;SDS011;60843;52.062;4.508;2023-05-10T13:58:03;3.72;;;2.50;;
72728;SDS011;60843;52.062;4.508;2023-05-10T14:00:28;3.57;;;2.33;;
72728;SDS011;60843;52.062;4.508;2023-05-10T14:02:53;5.33;;;2.77;;
72728;SDS011;60843;52.062;4.508;2023-05-10T14:05:19;4.00;;;2.20;;
72728;SDS011;60843;52.062;4.508;2023-05-10T14:07:45;4.18;;;2.55;;
72728;SDS011;60843;52.062;4.508;2023-05-10T14:10:10;4.33;;;2.90;;
72728;SDS011;60843;52.062;4.508;2023-05-10T14:12:35;5.30;;;2.63;;
72728;SDS011;60843;52.062;4.508;2023-05-10T14:15:01;4.70;;;2.67;;
72728;SDS011;60843;52.062;4.508;2023-05-10T14:17:27;5.50;;;2.92;;
72728;SDS011;60843;52.062;4.508;2023-05-10T14:19:52;5.95;;;3.30;;
72728;SDS011;60843;52.062;4.508;2023-05-10T14:22:18;6.20;;;3.40;;
72728;SDS011;60843;52.062;4.508;2023-05-10T14:24:43;7.43;;;3.03;;
72728;SDS011;60843;52.062;4.508;2023-05-10T14:29:37;5.45;;;2.85;;
72728;SDS011;60843;52.062;4.508;2023-05-10T14:32:02;5.47;;;3.13;;
72728;SDS011;60843;52.062;4.508;2023-05-10T14:34:28;3.88;;;2.22;;
72728;SDS011;60843;52.062;4.508;2023-05-10T14:36:53;4.13;;;2.90;;
72728;SDS011;60843;52.062;4.508;2023-05-10T14:39:18;5.57;;;2.97;;
72728;SDS011;60843;52.062;4.508;2023-05-10T14:41:44;5.50;;;2.67;;
72728;SDS011;60843;52.062;4.508;2023-05-10T14:44:10;6.47;;;3.30;;
72728;SDS011;60843;52.062;4.508;2023-05-10T14:46:36;7.05;;;3.40;;
72728;SDS011;60843;52.062;4.508;2023-05-10T14:49:01;4.93;;;2.90;;
72728;SDS011;60843;52.062;4.508;2023-05-10T14:51:27;4.77;;;2.77;;
72728;SDS011;60843;52.062;4.508;2023-05-10T14:53:52;6.53;;;3.00;;
72728;SDS011;60843;52.062;4.508;2023-05-10T14:56:17;4.77;;;2.93;;
72728;SDS011;60843;52.062;4.508;2023-05-10T14:58:43;5.20;;;3.38;;
72728;SDS011;60843;52.062;4.508;2023-05-10T15:01:08;4.53;;;2.47;;
72728;SDS011;60843;52.062;4.508;2023-05-10T15:03:33;4.53;;;2.70;;
72728;SDS011;60843;52.062;4.508;2023-05-10T15:05:59;6.77;;;3.07;;
72728;SDS011;60843;52.062;4.508;2023-05-10T15:08:24;3.83;;;2.87;;
72728;SDS011;60843;52.062;4.508;2023-05-10T15:10:49;3.78;;;2.40;;
72728;SDS011;60843;52.062;4.508;2023-05-10T15:13:15;6.35;;;2.97;;
72728;SDS011;60843;52.062;4.508;2023-05-10T15:15:41;4.50;;;2.60;;
72728;SDS011;60843;52.062;4.508;2023-05-10T15:18:06;5.07;;;3.07;;
72728;SDS011;60843;52.062;4.508;2023-05-10T15:20:32;3.93;;;2.87;;
72728;SDS011;60843;52.062;4.508;2023-05-10T15:22:57;4.13;;;2.92;;
72728;SDS011;60843;52.062;4.508;2023-05-10T15:25:22;4.72;;;3.03;;
72728;SDS011;60843;52.062;4.508;2023-05-10T15:27:48;5.20;;;2.97;;